Flight Track Log - Related Links

Times and Time Zones

All times are in EDT time to prevent confusion due to time zone crossing. See the VRT51 flight status page for this flight to view local times or setup timezone preferences in your user account.

Time Position Orientation Groundspeed Altitude Reporting Facility
EDT Latitude Longitude Course Direction KTS MPH feet Rate Location/Type
Wed 06:58:25 AM 36.1333 -86.6667 39° Northeast 178 205 1,400  Level Nashville TRACON
Wed 06:59:31 AM 36.1667 -86.6333 39° Northeast 197 227 5,000 2,810 Climbing Nashville TRACON
Wed 07:00:31 AM 36.1667 -86.5500 90° East 267 307 7,300 2,519 Climbing Nashville TRACON
Wed 07:01:42 AM 36.0772 -86.5561 183° South 325 374 10,500 3,115 Climbing Memphis Center
Wed 07:02:42 AM 35.9931 -86.5986 202° Southwest 330 380 14,100 3,500 Climbing Memphis Center
Wed 07:03:42 AM 35.9008 -86.6439 202° Southwest 346 398 17,500 1,950 Climbing Memphis Center
Wed 07:04:42 AM 35.8000 -86.6944 202° Southwest 377 434 18,000 250 Climbing Memphis Center
Wed 07:05:42 AM 35.6908 -86.7428 200° South 408 470 18,000  Level Memphis Center
Wed 07:06:42 AM 35.5750 -86.7708 191° South 421 484 18,000  Level Memphis Center
Wed 07:07:42 AM 35.4564 -86.7836 185° South 431 496 18,000  Level Memphis Center
Wed 07:08:42 AM 35.3503 -86.7931 184° South 431 496 18,000  Level Memphis Center
Wed 07:09:42 AM 35.2275 -86.8008 183° South 437 503 18,000  Level Memphis Center
Wed 07:10:42 AM 35.1086 -86.8061 182° South 437 503 18,000  Level Memphis Center
Wed 07:11:42 AM 34.9922 -86.8133 183° South 437 503 18,000  Level Memphis Center
Wed 07:12:42 AM 34.8714 -86.8211 183° South 437 503 18,000  Level Memphis Center
Wed 07:13:42 AM 34.7506 -86.8286 183° South 437 503 18,000  Level Memphis Center
Wed 07:14:42 AM 34.6297 -86.8389 184° South 437 503 18,000  Level Memphis Center
Wed 07:15:40 AM 34.5053 -86.8442 182° South 442 509 18,000 -1,119 Level Atlanta Center
Wed 07:16:40 AM 34.3944 -86.8531 184° South 442 509 15,800 -2,250 Descending Atlanta Center
Wed 07:17:40 AM 34.2797 -86.8569 182° South 424 488 13,500 -2,300 Descending Atlanta Center
Wed 07:18:40 AM 34.1708 -86.8658 184° South 406 467 11,200 -1,250 Descending Atlanta Center
Wed 07:19:40 AM 34.0664 -86.8725 183° South 389 448 11,000 -350 Descending Atlanta Center
Wed 07:20:40 AM 33.9658 -86.8867 187° South 379 436 10,500 -900 Descending Atlanta Center
Wed 07:21:40 AM 33.8839 -86.9064 191° South 344 396 9,200 -1,600 Descending Atlanta Center
Wed 07:22:40 AM 33.8064 -86.9264 192° South 305 351 7,300 -1,950 Descending Atlanta Center
Wed 07:23:40 AM 33.7308 -86.9439 191° South 287 330 5,300 -2,000 Descending Atlanta Center
Wed 07:24:40 AM 33.6553 -86.9636 192° South 281 323 3,300 -1,150 Descending Atlanta Center
Wed 07:25:40 AM 33.5822 -86.9636 180° South 276 318 3,000 -150 Descending Atlanta Center
Wed 07:26:40 AM 33.5072 -86.9561 175° South 276 318 3,000 -200 Level Atlanta Center
Wed 07:27:40 AM 33.4689 -86.8975 128° Southeast 211 243 2,600 -340 Descending Atlanta Center
Wed 07:29:01 AM 33.5097 -86.8517 43° Northeast 104 120 2,200 -426 Descending Atlanta Center
Wed 07:30:01 AM 33.5269 -86.8197 57° Northeast 109 125 1,600 -595 Descending Atlanta Center
Wed 07:31:02 AM 33.5467 -86.7856 55° Northeast 124 143 1,000 -590 Descending Atlanta Center

Login

Don't have an account? Register now (free) for customized features, flight alerts, and more!